Map

Track Data

SID SEASON NUMBER BASIN SUBBASIN NAME ISO_TIME NATURE LAT LON WMO_WIND WMO_PRES WMO_AGENCY TRACK_TYPE DIST2LAND LANDFALL IFLAG USA_AGENCY USA_ATCF_ID USA_LAT USA_LON USA_RECORD USA_STATUS USA_WIND USA_PRES USA_SSHS USA_R34_NE USA_R34_SE USA_R34_SW USA_R34_NW USA_R50_NE USA_R50_SE USA_R50_SW USA_R50_NW USA_R64_NE USA_R64_SE USA_R64_SW USA_R64_NW USA_POCI USA_ROCI USA_RMW USA_EYE TOKYO_LAT TOKYO_LON TOKYO_GRADE TOKYO_WIND TOKYO_PRES TOKYO_R50_DIR TOKYO_R50_LONG TOKYO_R50_SHORT TOKYO_R30_DIR TOKYO_R30_LONG TOKYO_R30_SHORT TOKYO_LAND CMA_LAT CMA_LON CMA_CAT CMA_WIND CMA_PRES HKO_LAT HKO_LON HKO_CAT HKO_WIND HKO_PRES NEWDELHI_LAT NEWDELHI_LON NEWDELHI_GRADE NEWDELHI_WIND NEWDELHI_PRES NEWDELHI_CI NEWDELHI_DP NEWDELHI_POCI REUNION_LAT REUNION_LON REUNION_TYPE REUNION_WIND REUNION_PRES REUNION_TNUM REUNION_CI REUNION_RMW REUNION_R34_NE REUNION_R34_SE REUNION_R34_SW REUNION_R34_NW REUNION_R50_NE REUNION_R50_SE REUNION_R50_SW REUNION_R50_NW REUNION_R64_NE REUNION_R64_SE REUNION_R64_SW REUNION_R64_NW BOM_LAT BOM_LON BOM_TYPE BOM_WIND BOM_PRES BOM_TNUM BOM_CI BOM_RMW BOM_R34_NE BOM_R34_SE BOM_R34_SW BOM_R34_NW BOM_R50_NE BOM_R50_SE BOM_R50_SW BOM_R50_NW BOM_R64_NE BOM_R64_SE BOM_R64_SW BOM_R64_NW BOM_ROCI BOM_POCI BOM_EYE BOM_POS_METHOD BOM_PRES_METHOD NADI_LAT NADI_LON NADI_CAT NADI_WIND NADI_PRES WELLINGTON_LAT WELLINGTON_LON WELLINGTON_WIND WELLINGTON_PRES DS824_LAT DS824_LON DS824_STAGE DS824_WIND DS824_PRES TD9636_LAT TD9636_LON TD9636_STAGE TD9636_WIND TD9636_PRES TD9635_LAT TD9635_LON TD9635_WIND TD9635_PRES TD9635_ROCI NEUMANN_LAT NEUMANN_LON NEUMANN_CLASS NEUMANN_WIND NEUMANN_PRES MLC_LAT MLC_LON MLC_CLASS MLC_WIND MLC_PRES USA_GUST BOM_GUST BOM_GUST_PER REUNION_GUST REUNION_GUST_PER USA_SEAHGT USA_SEARAD_NE USA_SEARAD_SE USA_SEARAD_SW USA_SEARAD_NW STORM_SPEED STORM_DIR
1892267N17277 1892 47 NA CS NOT_NAMED 1892-09-23 06:00:00 TS 16.8000 -82.6000 main 188 183 _____________O -1 16.8000 -82.6000 TD 30 10 299
1892267N17277 1892 47 NA CS NOT_NAMED 1892-09-23 09:00:00 TS 17.0377 -83.0523 main 183 180 _____________P -1 17.0377 -83.0523 TD 32 10 300
1892267N17277 1892 47 NA CS NOT_NAMED 1892-09-23 12:00:00 TS 17.3000 -83.5000 main 188 183 _____________O -1 17.3000 -83.5000 TS 35 10 303
1892267N17277 1892 47 NA CS NOT_NAMED 1892-09-23 15:00:00 TS 17.5998 -83.9426 main 205 203 _____________P -1 17.5998 -83.9426 TS 37 10 305
1892267N17277 1892 47 NA CS NOT_NAMED 1892-09-23 18:00:00 TS 17.9000 -84.4000 main 226 224 _____________O -1 17.9000 -84.4000 TS 40 11 301
1892267N17277 1892 47 NA CS NOT_NAMED 1892-09-23 21:00:00 TS 18.1500 -84.9002 main 246 238 _____________P -1 18.1500 -84.9002 TS 42 11 298
1892267N17277 1892 47 NA CS NOT_NAMED 1892-09-24 00:00:00 TS 18.4000 -85.4000 main 238 187 _____________O -1 18.4000 -85.4000 TS 45 11 301
1892267N17277 1892 47 NA CS NOT_NAMED 1892-09-24 03:00:00 TS 18.6998 -85.8501 main 177 128 _____________P -1 18.6998 -85.8501 TS 45 10 305
1892267N17277 1892 47 NA CS NOT_NAMED 1892-09-24 06:00:00 TS 19.0000 -86.3000 main 128 66 _____________O -1 19.0000 -86.3000 TS 45 11 302
1892267N17277 1892 47 NA CS NOT_NAMED 1892-09-24 09:00:00 TS 19.2650 -86.8001 main 66 10 _____________P -1 19.2650 -86.8001 TS 45 11 298
1892267N17277 1892 47 NA CS NOT_NAMED 1892-09-24 12:00:00 TS 19.5000 -87.3000 main 10 0 _____________O -1 19.5000 -87.3000 TS 45 10 296
1892267N17277 1892 47 NA CS NOT_NAMED 1892-09-24 15:00:00 TS 19.7073 -87.7502 main 0 0 _____________P -1 19.7073 -87.7502 TS 37 9 295
1892267N17277 1892 47 NA NA NOT_NAMED 1892-09-24 18:00:00 TS 19.9000 -88.2000 main 0 0 _____________O -1 19.9000 -88.2000 TD 30 10 294
1892267N17277 1892 47 NA NA NOT_NAMED 1892-09-24 21:00:00 TS 20.1000 -88.7001 main 0 0 _____________P -1 20.1000 -88.7001 TD 30 10 293
1892267N17277 1892 47 NA NA NOT_NAMED 1892-09-25 00:00:00 TS 20.3000 -89.2000 main 0 0 _____________O -1 20.3000 -89.2000 TD 30 10 294
1892267N17277 1892 47 NA NA NOT_NAMED 1892-09-25 03:00:00 TS 20.5073 -89.6576 main 0 0 _____________P -1 20.5073 -89.6576 TD 30 9 295
1892267N17277 1892 47 NA NA NOT_NAMED 1892-09-25 06:00:00 TS 20.7000 -90.1000 main 0 0 _____________O -1 20.7000 -90.1000 TD 30 9 296
1892267N17277 1892 47 NA GM NOT_NAMED 1892-09-25 09:00:00 TS 20.9174 -90.5496 main 15 15 _____________P -1 20.9174 -90.5496 TD 30 9 290
1892267N17277 1892 47 NA GM NOT_NAMED 1892-09-25 12:00:00 TS 21.0000 -91.0000 main 66 66 _____________O -1 21.0000 -91.0000 TD 30 9 262
1892267N17277 1892 47 NA GM NOT_NAMED 1892-09-25 15:00:00 TS 20.8024 -91.4580 main 109 109 _____________P -1 20.8024 -91.4580 TD 32 10 239
1892267N17277 1892 47 NA GM NOT_NAMED 1892-09-25 18:00:00 TS 20.5000 -91.9000 main 145 145 _____________O -1 20.5000 -91.9000 TS 35 10 238
1892267N17277 1892 47 NA GM NOT_NAMED 1892-09-25 21:00:00 TS 20.3000 -92.3298 main 177 167 _____________P -1 20.3000 -92.3298 TS 35 9 242
1892267N17277 1892 47 NA GM NOT_NAMED 1892-09-26 00:00:00 TS 20.1000 -92.7000 main 167 146 _____________O -1 20.1000 -92.7000 TS 35 8 233
1892267N17277 1892 47 NA GM NOT_NAMED 1892-09-26 03:00:00 TS 19.8499 -92.9724 main 137 123 _____________P -1 19.8499 -92.9724 TS 35 7 223
1892267N17277 1892 47 NA GM NOT_NAMED 1892-09-26 06:00:00 TS 19.6000 -93.2000 main 123 109 _____________O -1 19.6000 -93.2000 TS 35 6 222
1892267N17277 1892 47 NA GM NOT_NAMED 1892-09-26 09:00:00 TS 19.3774 -93.4274 main 115 100 _____________P -1 19.3774 -93.4274 TS 35 6 230
1892267N17277 1892 47 NA GM NOT_NAMED 1892-09-26 12:00:00 TS 19.2000 -93.7000 main 100 89 _____________O -1 19.2000 -93.7000 TS 35 7 243
1892267N17277 1892 47 NA GM NOT_NAMED 1892-09-26 15:00:00 TS 19.0477 -94.1002 main 81 69 _____________P -1 19.0477 -94.1002 TS 37 8 255
1892267N17277 1892 47 NA GM NOT_NAMED 1892-09-26 18:00:00 TS 19.0000 -94.5000 main 69 54 _____________O -1 19.0000 -94.5000 TS 40 7 274
1892267N17277 1892 47 NA GM NOT_NAMED 1892-09-26 21:00:00 TS 19.0899 -94.7874 main 59 54 _____________P -1 19.0899 -94.7874 TS 40 6 302
1892267N17277 1892 47 NA GM NOT_NAMED 1892-09-27 00:00:00 TS 19.3000 -95.0000 main 70 70 _____________O -1 19.3000 -95.0000 TS 40 6 323
1892267N17277 1892 47 NA GM NOT_NAMED 1892-09-27 03:00:00 TS 19.5775 -95.1725 main 100 100 _____________P -1 19.5775 -95.1725 TS 40 7 335
1892267N17277 1892 47 NA GM NOT_NAMED 1892-09-27 06:00:00 TS 19.9000 -95.3000 main 114 105 _____________O -1 19.9000 -95.3000 TS 40 7 340
1892267N17277 1892 47 NA GM NOT_NAMED 1892-09-27 09:00:00 TS 20.2150 -95.4225 main 109 104 _____________P -1 20.2150 -95.4225 TS 40 6 342
1892267N17277 1892 47 NA GM NOT_NAMED 1892-09-27 12:00:00 TS 20.5000 -95.5000 main 115 115 _____________O -1 20.5000 -95.5000 TS 40 5 350
1892267N17277 1892 47 NA GM NOT_NAMED 1892-09-27 15:00:00 TS 20.7225 -95.5151 main 129 129 _____________P -1 20.7225 -95.5151 TS 42 4 0
1892267N17277 1892 47 NA GM NOT_NAMED 1892-09-27 18:00:00 TS 20.9000 -95.5000 main 144 144 _____________O -1 20.9000 -95.5000 TS 45 3 4
1892267N17277 1892 47 NA GM NOT_NAMED 1892-09-27 21:00:00 TS 21.0575 -95.4925 main 160 160 _____________P -1 21.0575 -95.4925 TS 45 3 0
1892267N17277 1892 47 NA GM NOT_NAMED 1892-09-28 00:00:00 TS 21.2000 -95.5000 main 167 167 _____________O -1 21.2000 -95.5000 TS 45 3 348
1892267N17277 1892 47 NA GM NOT_NAMED 1892-09-28 03:00:00 TS 21.3500 -95.5500 main 182 175 _____________P -1 21.3500 -95.5500 TS 45 3 343
1892267N17277 1892 47 NA GM NOT_NAMED 1892-09-28 06:00:00 TS 21.5000 -95.6000 main 176 175 _____________O -1 21.5000 -95.6000 TS 45 3 355
1892267N17277 1892 47 NA GM NOT_NAMED 1892-09-28 09:00:00 TS 21.6500 -95.6001 main 176 175 _____________P -1 21.6500 -95.6001 TS 45 3 0
1892267N17277 1892 47 NA GM NOT_NAMED 1892-09-28 12:00:00 TS 21.8000 -95.6000 main 177 177 _____________O -1 21.8000 -95.6000 TS 45 3 355
1892267N17277 1892 47 NA GM NOT_NAMED 1892-09-28 15:00:00 TS 21.9500 -95.6425 main 181 171 _____________P -1 21.9500 -95.6425 TS 47 3 344
1892267N17277 1892 47 NA GM NOT_NAMED 1892-09-28 18:00:00 TS 22.1000 -95.7000 main 174 174 _____________O -1 22.1000 -95.7000 TS 50 3 343
1892267N17277 1892 47 NA GM NOT_NAMED 1892-09-28 21:00:00 TS 22.2500 -95.7500 main 173 173 _____________P -1 22.2500 -95.7500 TS 50 3 344
1892267N17277 1892 47 NA GM NOT_NAMED 1892-09-29 00:00:00 TS 22.4000 -95.8000 main 178 178 _____________O -1 22.4000 -95.8000 TS 50 3 344
1892267N17277 1892 47 NA GM NOT_NAMED 1892-09-29 03:00:00 TS 22.5500 -95.8500 main 182 182 _____________P -1 22.5500 -95.8500 TS 50 3 344
1892267N17277 1892 47 NA GM NOT_NAMED 1892-09-29 06:00:00 TS 22.7000 -95.9000 main 189 184 _____________O -1 22.7000 -95.9000 TS 50 3 341
1892267N17277 1892 47 NA GM NOT_NAMED 1892-09-29 09:00:00 TS 22.8350 -95.9575 main 184 184 _____________P -1 22.8350 -95.9575 TS 50 3 344
1892267N17277 1892 47 NA GM NOT_NAMED 1892-09-29 12:00:00 TS 23.0000 -96.0000 main 184 183 _____________O -1 23.0000 -96.0000 TS 50 4 355
1892267N17277 1892 47 NA GM NOT_NAMED 1892-09-29 15:00:00 TS 23.2350 -96.0001 main 183 183 _____________P -1 23.2350 -96.0001 TS 52 5 2
1892267N17277 1892 47 NA GM NOT_NAMED 1892-09-29 18:00:00 TS 23.5000 -96.0000 main 183 183 _____________O -1 23.5000 -96.0000 TS 55 5 357
1892267N17277 1892 47 NA GM NOT_NAMED 1892-09-29 21:00:00 TS 23.7500 -96.0499 main 183 171 _____________P -1 23.7500 -96.0499 TS 55 5 350
1892267N17277 1892 47 NA GM NOT_NAMED 1892-09-30 00:00:00 TS 24.0000 -96.1000 main 171 165 _____________O -1 24.0000 -96.1000 TS 55 5 353
1892267N17277 1892 47 NA GM NOT_NAMED 1892-09-30 03:00:00 TS 24.2500 -96.1075 main 161 151 _____________P -1 24.2500 -96.1075 TS 55 5 2
1892267N17277 1892 47 NA GM NOT_NAMED 1892-09-30 06:00:00 TS 24.5000 -96.1000 main 151 142 _____________O -1 24.5000 -96.1000 TS 55 5 2
1892267N17277 1892 47 NA GM NOT_NAMED 1892-09-30 09:00:00 TS 24.7500 -96.0926 main 138 128 _____________P -1 24.7500 -96.0926 TS 55 5 2
1892267N17277 1892 47 NA GM NOT_NAMED 1892-09-30 12:00:00 TS 25.0000 -96.1000 main 128 119 _____________O -1 25.0000 -96.1000 TS 55 5 353
1892267N17277 1892 47 NA GM NOT_NAMED 1892-09-30 15:00:00 TS 25.2500 -96.1499 main 115 100 _____________P -1 25.2500 -96.1499 TS 55 5 350
1892267N17277 1892 47 NA GM NOT_NAMED 1892-09-30 18:00:00 TS 25.5000 -96.2000 main 100 96 _____________O -1 25.5000 -96.2000 TS 55 5 353
1892267N17277 1892 47 NA GM NOT_NAMED 1892-09-30 21:00:00 TS 25.7500 -96.2076 main 92 89 _____________P -1 25.7500 -96.2076 TS 55 5 2
1892267N17277 1892 47 NA GM NOT_NAMED 1892-10-01 00:00:00 TS 26.0000 -96.2000 main 89 89 _____________O -1 26.0000 -96.2000 TS 55 5 2
1892267N17277 1892 47 NA GM NOT_NAMED 1892-10-01 03:00:00 TS 26.2500 -96.2000 main 95 92 _____________P -1 26.2500 -96.2000 TS 55 5 2
1892267N17277 1892 47 NA GM NOT_NAMED 1892-10-01 06:00:00 TS 26.5000 -96.2000 main 105 105 _____________O -1 26.5000 -96.2000 TS 55 5 2
1892267N17277 1892 47 NA GM NOT_NAMED 1892-10-01 09:00:00 TS 26.7500 -96.1926 main 118 118 _____________P -1 26.7500 -96.1926 TS 55 5 2
1892267N17277 1892 47 NA GM NOT_NAMED 1892-10-01 12:00:00 TS 27.0000 -96.2000 main 122 113 _____________O -1 27.0000 -96.2000 TS 55 5 356
1892267N17277 1892 47 NA GM NOT_NAMED 1892-10-01 15:00:00 TS 27.2350 -96.2425 main 113 89 _____________P -1 27.2350 -96.2425 TS 55 5 350
1892267N17277 1892 47 NA GM NOT_NAMED 1892-10-01 18:00:00 TS 27.5000 -96.3000 main 89 66 _____________O -1 27.5000 -96.3000 TS 55 6 351
1892267N17277 1892 47 NA GM NOT_NAMED 1892-10-01 21:00:00 TS 27.8650 -96.3500 main 56 22 _____________P -1 27.8650 -96.3500 TS 55 7 353
1892267N17277 1892 47 NA GM NOT_NAMED 1892-10-02 00:00:00 TS 28.2000 -96.4000 main 22 0 _____________O -1 28.2000 -96.4000 TS 55 5 0
1892267N17277 1892 47 NA GM NOT_NAMED 1892-10-02 03:00:00 TS 28.3796 -96.3754 main 0 0 _____________P -1 28.3796 -96.3754 TS 52 3 344
1892267N17277 1892 47 NA GM NOT_NAMED 1892-10-02 06:00:00 TS 28.5000 -96.5000 main 0 0 _____________O -1 28.5000 -96.5000 TS 50 6 297
1892267N17277 1892 47 NA NA NOT_NAMED 1892-10-02 09:00:00 TS 28.6582 -97.0046 main 0 0 _____________P -1 28.6582 -97.0046 TS 45 10 287
1892267N17277 1892 47 NA NA NOT_NAMED 1892-10-02 12:00:00 TS 28.8000 -97.6000 main 0 0 _____________O -1 28.8000 -97.6000 TS 40 9 286
1892267N17277 1892 47 NA NA NOT_NAMED 1892-10-02 15:00:00 TS 28.9072 -97.9877 main 0 0 _____________P -1 28.9072 -97.9877 TS 35 6 288
1892267N17277 1892 47 NA NA NOT_NAMED 1892-10-02 18:00:00 TS 29.0000 -98.3000 main 0 0 _____________O -1 29.0000 -98.3000 TD 30 6 290
1892267N17277 1892 47 NA NA NOT_NAMED 1892-10-02 21:00:00 TS 29.0998 -98.6001 main 0 0 _____________P -1 29.0998 -98.6001 TD 30 6 291
1892267N17277 1892 47 NA NA NOT_NAMED 1892-10-03 00:00:00 TS 29.2000 -98.9000 main 0 0 _____________O -1 29.2000 -98.9000 TD 30 6 289
1892267N17277 1892 47 NA NA NOT_NAMED 1892-10-03 03:00:00 TS 29.3000 -99.2500 main 0 0 _____________P -1 29.3000 -99.2500 TD 30 6 288
1892267N17277 1892 47 NA NA NOT_NAMED 1892-10-03 06:00:00 TS 29.4000 -99.6000 main 0 0 _____________O -1 29.4000 -99.6000 TD 30 6 289
1892267N17277 1892 47 NA NA NOT_NAMED 1892-10-03 09:00:00 TS 29.5001 -99.9124 main 0 0 _____________P -1 29.5001 -99.9124 TD 27 6 291
1892267N17277 1892 47 NA NA NOT_NAMED 1892-10-03 12:00:00 TS 29.6000 -100.200 main 0 _____________O -1 29.6000 -100.200 TD 25 5 292

About IBTrACS Database

This database is a web-friendly format of International Best Track Archive for Climate Stewardship (IBTrACS), a global best track data archive curated by NOAA dating back to 1842.

Updated: 2021-11-26